Tampa, Florida
Traffic Map
Current Weather Conditions
Tampa, Florida
Scattered Clouds
Scattered Clouds
85°
Feels Like: 91°
Wind Chill: 85° Ceiling: Unl
Heat Index: 91° Visibility: 10mi
Dew Point: 72° Wind: 5mph
Humidity: 65% Direction: 40° (NE)
Pressure: 30.05in Gusts: 0mph
Raw Report DataKTPA 281353Z 04004KT 10SM FEW020 SCT250 29/22 A3005 RMK AO2 SLP176 CB DSNT NW T02940222
Traffic Incident Summary
Active as of:
Severity:
Category:
InformationThere was an issue retrieving the traffic information for this location. Please try a different location or try again shortly.
Advertisements
Track Severe Weather on mobile